首页
METAR-TAF:

METAR-TAF

机场 :

傑克遜斯國際機場

莫尔兹比港, 巴布亞新幾內亞

纬度: 09-26S, 经度: 147-13E, 海拔: 38米

当前天气观测

该预报发布于1小时和20分钟前的10:00 UTC
风速15节,风向南转南东,有时为20节阵风
温度 26°C
湿度 79%
气压 1014 hPa
能见度10公里或以上
阴天层高于7000英尺

METAR: AYPY 181000Z 15015G20KT 9999 OVC070 26/22 Q1014

时间: 21:20 (11:20 UTC)

预报

该预报发布于7小时和50分钟前的03:30 UTC
预报有效从18日的 06点(UTC)到 19日的 06点(UTC)
风速12节,风向南转南东
能见度10公里或以上
散云层高于3000英尺
多云层高于13000英尺
从 18日的 1000点(UTC)
风速15节,风向南转南东
能见度10公里或以上
多云层高于4000英尺

TAF: AYPY 180330Z 1806/1906 15012KT 9999 SCT030 BKN130 FM181000 16015KT 9999 BKN040

超过4000个机场的气象观测和天气预报(METAR&TAF报告)。

可查询的气象台以黄色和红色小点在地图上表示。

将鼠标移到小点上方,可查看气象台名称。

然后点击查看天气观测和预报。

如需切换地图:点击带黑十字的绿色按钮放大地图;点击带横线的绿色按钮缩小地图;或者点击绿色箭头查看邻近地区的地图。


METAR-TAF: